« 2007年10月 | トップページ | 2007年12月 »

航空気象情報

航空機の運行に関わる情報として各地の空港の気象情報、METAR(実況)とTAF(予報)というものがあります。
飛行機好きとしては興味があったし、撮影に行く時に参考になるかと思って見てみると・・・

2007/11/27 00:00
RJSS 270000Z VRB06KT 9999 FEW040 BKN/// 10/M03 Q1010 WS RWY27

ん~、さっぱり解りません。
解説しているサイトを見つけたのですが、一々参照しながら解読するわけにもいかないので、データを読みとって解りやすいように変換してから表示するソフトをWindowsとWindows Mobile用に作ってみました。
でも、作っているうちに読み方が大体解ってしまいました。それに作ったは良いけど実際何かの役に立つのかという疑問も・・・(^_^;

METARとTAFに書かれている内容についてはこちらのサイトで詳しく解説されています。私も参考させていただきました。

需要は無いと思うけど一応公開しました。興味がある方はHOMEPAGEのSOFTWAREページからどうぞ。

| | コメント (0) | トラックバック (0)

11/25の仙台空港

今日は朝から天気が良くて、ここ数日の寒さも一段落。
こんな日はやっぱり飛行機が見たくなります。

撮影機材:Panasonic DMC-FZ30

| | コメント (0) | トラックバック (0)

初雪2007@仙台

初雪です。2,3日前から急に寒くなったと感じていたけど・・・
去年より2週間も早い。しかもいきなり積雪。朝、車の上には3cm位積っただろうか。
まだ早いと思っていたけど、そろそろ車の冬支度もせねばならんかぁ。

| | コメント (0) | トラックバック (0)

11/07の仙台空港

松島基地でブルーインパルスのフィールドアクロを見た後は普段ならそのまま夕方まで外周で過ごすのですが、F-2もF-15も飛行停止となっているので仙台空港に寄りました。

撮影機材:Panasonic DMC-FZ30

| | コメント (0) | トラックバック (0)

アカデミックパック

アカデミックパックとかアカデミックバージョンとかいうのがありますよね。
特にパソコンソフトでよくある学生や教職員が割安で購入できるバージョンです。

今度、ウィルコムがAdvanced/W-ZERO3[es]のアカデミックパックを発売するそうです。(-_-)

学生に割安で販売するのは良いんですよ。昔から学割ってのがありますからね。

でも何で普通に収入がある教職員まで対象になるの?
仮に年収1000万の大学教授と年収500万のサラリーマンが同じものを買おうとしたら、大学教授は安く買えるってことですよね。おかしいんじゃないか?

学校の先生っていうだけで腹が立ちそうです。(^_^;

| | コメント (0) | トラックバック (0)

« 2007年10月 | トップページ | 2007年12月 »